Time;durP1;ratioP1;P1;durP2;ratioP2;P2;SDS_P1;SDS_P2;PMS_P1;PMS_P2;Temp;Humidity;BMP_temperature;BMP_pressure;BME280_temperature;BME280_humidity;BME280_pressure;Samples;Min_cycle;Max_cycle;Signal;HPM_P1;HPM_P2
2022/09/22 00:00:00;;;;;;;1.13;0.80;;;;;;;10.09;61.49;96492.50;5094716;28;20486;-67
2022/09/22 00:02:27;;;;;;;0.70;0.70;;;;;;;10.02;62.38;96491.00;5094698;28;20044;-66
2022/09/22 00:04:55;;;;;;;0.75;0.75;;;;;;;9.95;62.25;96486.94;5094626;28;20117;-66
2022/09/22 00:07:23;;;;;;;0.95;0.80;;;;;;;9.97;62.75;96485.13;5094564;28;20044;-68
2022/09/22 00:09:50;;;;;;;1.58;0.90;;;;;;;9.98;63.80;96487.69;5094445;28;20547;-66
2022/09/22 00:12:17;;;;;;;0.70;0.70;;;;;;;9.97;64.38;96477.28;5094391;28;20478;-66
2022/09/22 00:14:45;;;;;;;0.82;0.68;;;;;;;9.99;64.46;96481.53;5094171;28;20106;-67
2022/09/22 00:17:12;;;;;;;0.88;0.82;;;;;;;9.94;65.09;96483.44;5094450;28;20482;-66
2022/09/22 00:19:39;;;;;;;1.92;0.80;;;;;;;9.96;64.78;96484.25;5094329;28;20123;-67
2022/09/22 00:22:06;;;;;;;2.08;1.00;;;;;;;9.96;65.70;96481.66;5094663;28;20048;-66
2022/09/22 00:24:35;;;;;;;0.90;0.90;;;;;;;9.93;66.04;96479.16;5094383;28;20131;-66
2022/09/22 00:27:02;;;;;;;0.70;0.70;;;;;;;9.94;65.33;96483.44;5094132;28;20094;-67
2022/09/22 00:29:30;;;;;;;0.95;0.95;;;;;;;9.88;65.99;96472.38;5094283;28;20075;-65
2022/09/22 00:31:57;;;;;;;0.85;0.70;;;;;;;9.88;66.41;96473.25;5094151;28;20050;-66
2022/09/22 00:34:27;;;;;;;1.48;0.90;;;;;;;9.91;66.28;96467.91;5094013;28;20044;-67
2022/09/22 00:36:54;;;;;;;0.63;0.63;;;;;;;9.92;66.58;96467.00;5094153;28;20048;-67
2022/09/22 00:39:22;;;;;;;0.82;0.77;;;;;;;9.94;66.62;96472.16;5093856;28;20058;-65
2022/09/22 00:41:51;;;;;;;1.25;0.95;;;;;;;9.95;66.79;96472.13;5094190;28;20109;-67
2022/09/22 00:44:39;;;;;;;0.90;0.90;;;;;;;9.93;66.70;96479.16;5093954;28;20485;-66
2022/09/22 00:47:21;;;;;;;0.75;0.75;;;;;;;9.90;67.08;96468.81;5093897;28;20055;-67
2022/09/22 00:49:53;;;;;;;0.77;0.77;;;;;;;9.90;67.08;96466.19;5093696;28;20044;-67
2022/09/22 00:52:25;;;;;;;0.65;0.65;;;;;;;9.91;67.88;96464.44;5093652;28;20101;-67
2022/09/22 00:54:58;;;;;;;0.80;0.73;;;;;;;9.83;67.74;96465.56;5093730;28;20525;-66
2022/09/22 00:57:30;;;;;;;0.85;0.85;;;;;;;9.69;67.36;96462.63;5093993;28;20044;-67
2022/09/22 00:59:58;;;;;;;1.20;0.85;;;;;;;9.67;68.40;96464.41;5093672;28;20048;-66
2022/09/22 01:02:25;;;;;;;1.60;0.85;;;;;;;9.64;68.09;96465.38;5093659;28;20114;-67
2022/09/22 01:04:53;;;;;;;1.13;0.93;;;;;;;9.63;68.26;96463.66;5093487;28;20142;-67
2022/09/22 01:07:22;;;;;;;1.00;0.90;;;;;;;9.66;68.33;96458.31;5093380;28;20083;-66
2022/09/22 01:09:51;;;;;;;0.93;0.88;;;;;;;9.65;68.91;96461.84;5093620;28;20478;-66
2022/09/22 01:12:18;;;;;;;2.50;1.10;;;;;;;9.61;68.98;96462.88;5093548;28;20044;-67
2022/09/22 01:15:02;;;;;;;0.70;0.70;;;;;;;9.51;68.43;96461.50;5093199;28;20067;-65
2022/09/22 01:17:42;;;;;;;1.02;0.80;;;;;;;9.51;68.96;96454.50;5093373;28;20044;-67
2022/09/22 01:20:50;;;;;;;0.80;0.80;;;;;;;9.53;69.26;96457.06;5093448;28;20044;-67
2022/09/22 01:23:43;;;;;;;1.85;1.10;;;;;;;9.48;69.54;96457.22;5031227;28;20041;-66
2022/09/22 01:26:34;;;;;;;1.20;0.80;;;;;;;9.45;69.51;96455.56;5090033;28;20048;-66
2022/09/22 01:29:38;;;;;;;3.47;1.33;;;;;;;9.39;69.72;96455.78;5090922;28;20122;-66
2022/09/22 01:32:15;;;;;;;1.02;0.95;;;;;;;9.36;68.04;96455.88;5093321;28;20375;-66
2022/09/22 01:34:49;;;;;;;1.30;0.90;;;;;;;9.35;67.55;96451.56;5093248;28;20537;-66
2022/09/22 01:37:24;;;;;;;0.93;0.80;;;;;;;9.31;68.12;96452.59;5093221;28;20095;-65
2022/09/22 01:39:55;;;;;;;1.42;0.90;;;;;;;9.33;65.34;96445.56;5093200;28;20044;-67
2022/09/22 01:42:30;;;;;;;2.45;0.80;;;;;;;9.32;65.67;96449.94;5093160;28;20052;-66
2022/09/22 01:45:02;;;;;;;1.00;0.73;;;;;;;9.31;66.34;96449.97;5093260;28;20118;-66
2022/09/22 01:47:39;;;;;;;1.27;0.80;;;;;;;9.31;64.95;96456.06;5092884;28;20056;-65
2022/09/22 01:50:11;;;;;;;0.95;0.85;;;;;;;9.36;65.33;96458.50;5094794;28;20123;-66
2022/09/22 01:52:41;;;;;;;1.00;0.80;;;;;;;9.37;64.89;96459.34;5097517;28;20131;-66
2022/09/22 01:55:14;;;;;;;1.00;0.85;;;;;;;9.26;64.06;96463.19;5097660;28;20059;-65
2022/09/22 01:57:49;;;;;;;1.13;1.00;;;;;;;9.26;64.73;96460.56;5097181;28;20496;-64
2022/09/22 02:00:17;;;;;;;1.67;0.93;;;;;;;9.27;64.30;96458.84;5097069;28;20040;-66
2022/09/22 02:02:52;;;;;;;1.38;0.90;;;;;;;9.25;64.55;96456.28;5097104;28;20044;-67
2022/09/22 02:05:27;;;;;;;0.90;0.90;;;;;;;9.27;64.35;96457.06;5096801;28;20135;-65
2022/09/22 02:07:57;;;;;;;1.08;0.80;;;;;;;9.28;65.60;96458.78;5096812;28;20481;-67
2022/09/22 02:10:28;;;;;;;0.95;0.90;;;;;;;9.31;64.71;96461.28;5096725;28;20087;-65
2022/09/22 02:12:55;;;;;;;3.55;0.90;;;;;;;9.28;65.14;96455.31;5096713;28;20105;-66
2022/09/22 02:18:14;;;;;;;1.23;1.13;;;;;;;9.21;66.33;96457.25;5097032;28;20051;-68
2022/09/22 02:20:41;;;;;;;2.55;0.90;;;;;;;9.19;66.65;96453.88;5096669;28;20095;-67
2022/09/22 02:23:08;;;;;;;2.50;0.90;;;;;;;9.17;66.57;96456.53;5096656;28;20048;-67
2022/09/22 02:25:37;;;;;;;1.77;0.98;;;;;;;9.14;66.76;96447.94;5096439;28;20044;-66
2022/09/22 02:28:07;;;;;;;1.38;0.90;;;;;;;9.11;67.09;96443.69;5096396;28;20041;-65
2022/09/22 02:30:34;;;;;;;0.90;0.90;;;;;;;9.12;67.35;96444.53;5096353;28;20406;-66
2022/09/22 02:33:02;;;;;;;1.17;1.08;;;;;;;9.06;67.75;96441.22;5096706;28;20537;-67
2022/09/22 02:35:35;;;;;;;0.82;0.80;;;;;;;8.99;67.75;96450.16;5096554;28;20080;-67
2022/09/22 02:38:07;;;;;;;2.35;0.95;;;;;;;8.90;68.07;96451.31;5096554;28;20518;-68
2022/09/22 02:40:43;;;;;;;2.83;0.90;;;;;;;8.77;68.23;96444.78;5096318;28;20119;-67
2022/09/22 02:43:16;;;;;;;0.77;0.77;;;;;;;8.66;68.66;96453.81;5096414;28;20470;-66
2022/09/22 02:45:50;;;;;;;0.80;0.80;;;;;;;8.64;68.73;96449.56;5096231;28;20123;-67
2022/09/22 02:48:22;;;;;;;1.00;1.00;;;;;;;8.64;69.16;96454.78;5096139;28;20082;-65
2022/09/22 02:50:52;;;;;;;0.88;0.80;;;;;;;8.62;69.73;96452.22;5096103;28;20144;-66
2022/09/22 02:53:19;;;;;;;1.25;1.15;;;;;;;8.47;70.29;96443.94;5095981;28;20555;-66
2022/09/22 02:55:46;;;;;;;2.40;1.00;;;;;;;8.41;69.94;96459.78;5096047;28;20490;-65
2022/09/22 02:58:16;;;;;;;2.85;1.00;;;;;;;8.41;70.08;96456.31;5096049;28;20127;-65
2022/09/22 03:00:44;;;;;;;1.13;1.02;;;;;;;8.43;69.94;96459.72;5095197;28;20048;-67
2022/09/22 03:03:11;;;;;;;2.15;1.13;;;;;;;8.38;70.09;96454.66;5095395;28;20048;-67
2022/09/22 03:05:39;;;;;;;1.50;1.20;;;;;;;8.38;69.93;96457.25;5095849;28;20478;-66
2022/09/22 03:08:07;;;;;;;1.40;1.30;;;;;;;8.44;69.58;96456.22;5095805;28;20071;-65
2022/09/22 03:10:35;;;;;;;2.80;1.20;;;;;;;8.49;69.68;96456.91;5095692;28;20505;-66
2022/09/22 03:13:02;;;;;;;1.33;1.23;;;;;;;8.52;69.81;96459.41;5095672;28;20044;-67
2022/09/22 03:15:29;;;;;;;1.63;1.20;;;;;;;8.54;70.03;96452.44;5095353;28;20051;-67
2022/09/22 03:17:56;;;;;;;1.42;1.08;;;;;;;8.59;69.92;96458.38;5095509;28;20551;-67
2022/09/22 03:20:23;;;;;;;1.20;1.05;;;;;;;8.58;69.90;96450.63;5095571;28;20508;-65
2022/09/22 03:22:50;;;;;;;1.23;1.13;;;;;;;8.53;70.77;96455.06;5095638;28;20092;-68
2022/09/22 03:25:19;;;;;;;1.33;1.13;;;;;;;8.51;70.84;96451.66;5095369;28;20041;-66
2022/09/22 03:27:46;;;;;;;1.60;1.35;;;;;;;8.51;70.93;96455.13;5095320;28;20052;-65
2022/09/22 03:30:14;;;;;;;1.35;1.20;;;;;;;8.53;70.41;96455.06;5095323;28;20052;-68
2022/09/22 03:32:41;;;;;;;1.42;1.30;;;;;;;8.55;70.57;96453.31;5095429;28;20048;-66
2022/09/22 03:35:09;;;;;;;1.63;1.25;;;;;;;8.53;70.46;96453.31;5095188;28;20143;-66
2022/09/22 03:37:36;;;;;;;1.33;1.20;;;;;;;8.57;70.06;96454.09;5095121;28;20097;-66
2022/09/22 03:40:04;;;;;;;1.95;1.23;;;;;;;8.66;69.64;96459.03;5095111;28;20040;-67
2022/09/22 03:42:34;;;;;;;1.55;0.90;;;;;;;8.68;69.67;96458.97;5095030;28;20044;-67
2022/09/22 03:45:03;;;;;;;2.25;1.00;;;;;;;8.67;69.03;96467.72;5094951;28;20048;-66
2022/09/22 03:47:30;;;;;;;0.93;0.90;;;;;;;8.64;70.12;96468.66;5094944;28;20502;-66
2022/09/22 03:49:57;;;;;;;1.17;1.00;;;;;;;8.64;69.81;96463.44;5095109;28;20123;-67
2022/09/22 03:52:24;;;;;;;1.17;1.08;;;;;;;8.66;69.88;96466.00;5094966;28;20048;-66
2022/09/22 03:54:52;;;;;;;1.17;0.90;;;;;;;8.68;69.60;96466.81;5094789;28;20134;-68
2022/09/22 03:57:19;;;;;;;1.33;1.23;;;;;;;8.63;69.78;96466.94;5094875;28;20470;-65
2022/09/22 03:59:47;;;;;;;1.33;1.20;;;;;;;8.54;70.25;96469.84;5094627;28;20048;-65
2022/09/22 04:02:15;;;;;;;0.85;0.85;;;;;;;8.51;70.21;96469.91;5094664;28;20040;-66
2022/09/22 04:04:42;;;;;;;1.20;1.10;;;;;;;8.46;69.91;96470.91;5094798;28;20131;-67
2022/09/22 04:07:10;;;;;;;1.50;1.08;;;;;;;8.52;69.81;96476.84;5094554;28;20052;-65
2022/09/22 04:09:38;;;;;;;1.27;0.90;;;;;;;8.48;70.18;96476.06;5094725;28;20051;-66
2022/09/22 04:12:06;;;;;;;1.33;0.88;;;;;;;8.52;69.88;96477.66;5094152;28;20056;-66
2022/09/22 04:14:33;;;;;;;1.95;0.98;;;;;;;8.50;69.88;96482.09;5094367;28;20075;-66
2022/09/22 04:17:02;;;;;;;0.90;0.90;;;;;;;8.48;70.04;96483.88;5094667;28;20048;-66
2022/09/22 04:19:34;;;;;;;1.30;1.17;;;;;;;8.52;70.18;96479.44;5094412;28;20048;-66
2022/09/22 04:22:03;;;;;;;1.50;0.90;;;;;;;8.54;70.12;96480.25;5094585;28;20417;-66
2022/09/22 04:24:30;;;;;;;0.95;0.90;;;;;;;8.57;69.65;96481.03;5094171;28;20055;-67
2022/09/22 04:26:57;;;;;;;1.10;1.00;;;;;;;8.57;69.73;96478.44;5094016;28;20044;-66
2022/09/22 04:29:25;;;;;;;1.20;1.10;;;;;;;8.59;69.96;96473.16;5094410;28;20052;-66
2022/09/22 04:31:52;;;;;;;3.38;1.35;;;;;;;8.60;70.00;96482.69;5094073;28;20478;-66
2022/09/22 04:34:21;;;;;;;1.00;0.90;;;;;;;8.57;70.15;96480.16;5094254;28;20375;-65
2022/09/22 04:36:48;;;;;;;1.77;1.10;;;;;;;8.67;70.11;96476.38;5094271;28;20044;-67
2022/09/22 04:39:15;;;;;;;1.15;1.00;;;;;;;8.71;69.69;96480.63;5094047;28;20116;-66
2022/09/22 04:41:43;;;;;;;1.92;1.23;;;;;;;8.83;69.86;96478.50;5093875;28;20055;-65
2022/09/22 04:44:12;;;;;;;0.77;0.77;;;;;;;8.92;69.74;96477.34;5093896;28;20076;-67
2022/09/22 04:46:44;;;;;;;0.90;0.90;;;;;;;8.96;69.52;96479.81;5093748;28;20482;-67
2022/09/22 04:49:12;;;;;;;1.70;0.77;;;;;;;9.06;69.05;96479.53;5093773;28;20289;-67
2022/09/22 04:51:41;;;;;;;1.20;1.10;;;;;;;9.11;69.52;96480.22;5093763;28;20083;-67
2022/09/22 04:54:08;;;;;;;0.88;0.88;;;;;;;9.10;68.87;96476.75;5093810;28;20040;-65
2022/09/22 04:56:35;;;;;;;1.10;1.00;;;;;;;9.22;69.29;96477.25;5093730;28;20089;-66
2022/09/22 04:59:04;;;;;;;0.70;0.70;;;;;;;9.25;69.40;96479.75;5093669;28;20051;-66
2022/09/22 05:01:31;;;;;;;1.10;0.90;;;;;;;9.35;68.38;96473.31;5093588;28;20083;-66
2022/09/22 05:03:58;;;;;;;0.95;0.95;;;;;;;9.40;68.48;96472.31;5093585;28;20044;-66
2022/09/22 05:06:25;;;;;;;1.38;0.90;;;;;;;9.45;67.93;96478.25;5093635;28;20486;-66
2022/09/22 05:08:55;;;;;;;0.88;0.88;;;;;;;9.50;67.78;96475.44;5093616;28;20044;-66
2022/09/22 05:11:23;;;;;;;0.98;0.90;;;;;;;9.69;67.63;96476.50;5093609;28;20448;-65
2022/09/22 05:13:51;;;;;;;0.90;0.88;;;;;;;10.39;65.61;96482.72;5093341;28;20059;-67
2022/09/22 05:16:18;;;;;;;4.13;1.13;;;;;;;11.49;62.69;96472.25;5093617;28;20059;-67
2022/09/22 05:18:48;;;;;;;1.45;0.93;;;;;;;12.84;58.28;96470.59;5093317;28;20052;-67
2022/09/22 05:21:17;;;;;;;0.73;0.73;;;;;;;14.51;53.35;96482.34;5093332;28;20139;-66
2022/09/22 05:23:45;;;;;;;0.75;0.75;;;;;;;15.83;49.30;96479.28;5093064;28;20070;-67
2022/09/22 05:26:14;;;;;;;1.00;0.90;;;;;;;16.58;46.78;96480.03;5092867;28;20052;-67
2022/09/22 05:28:42;;;;;;;0.80;0.80;;;;;;;17.00;44.87;96479.16;5093247;28;20135;-67
2022/09/22 05:31:10;;;;;;;0.70;0.70;;;;;;;17.18;44.22;96480.63;5093212;28;20393;-67
2022/09/22 05:33:38;;;;;;;0.68;0.68;;;;;;;17.71;44.25;96491.31;5093218;28;20044;-67
2022/09/22 05:36:05;;;;;;;1.73;0.80;;;;;;;18.08;43.57;96486.13;5093118;28;20094;-67
2022/09/22 05:38:33;;;;;;;0.75;0.75;;;;;;;18.75;41.10;96497.38;5093019;28;20052;-67
2022/09/22 05:41:00;;;;;;;0.63;0.63;;;;;;;19.38;39.53;96496.41;5093210;28;20078;-67
2022/09/22 05:43:29;;;;;;;1.20;0.68;;;;;;;20.11;38.18;96487.47;5093395;28;20508;-67
2022/09/22 05:45:56;;;;;;;1.08;0.77;;;;;;;20.66;37.60;96493.84;5093186;28;20071;-67
2022/09/22 05:48:24;;;;;;;0.60;0.60;;;;;;;21.14;35.71;96495.34;5093031;28;20056;-67
2022/09/22 05:50:51;;;;;;;2.55;0.98;;;;;;;21.28;36.04;96493.34;5093064;28;20047;-67
2022/09/22 05:53:18;;;;;;;1.35;0.85;;;;;;;21.51;35.25;96487.91;5093095;28;20081;-67
2022/09/22 05:55:46;;;;;;;2.35;1.35;;;;;;;22.43;34.49;96489.03;5092905;28;20044;-67
2022/09/22 05:58:14;;;;;;;0.90;0.90;;;;;;;22.55;33.09;96499.63;5093067;28;20048;-67
2022/09/22 06:00:42;;;;;;;1.25;0.70;;;;;;;22.42;33.46;96489.16;5092899;28;20127;-67
2022/09/22 06:03:10;;;;;;;0.70;0.70;;;;;;;22.66;33.32;96483.53;5092923;28;20040;-67
2022/09/22 06:05:37;;;;;;;0.77;0.77;;;;;;;22.75;32.34;96491.72;5093040;28;20040;-67
2022/09/22 06:08:06;;;;;;;0.93;0.75;;;;;;;23.08;33.23;96489.66;5092809;28;20135;-67
2022/09/22 06:10:35;;;;;;;2.47;0.73;;;;;;;23.62;31.62;96485.78;5092822;28;20131;-67
2022/09/22 06:13:03;;;;;;;0.80;0.80;;;;;;;23.32;32.47;96488.41;5092849;28;20444;-67
2022/09/22 06:15:32;;;;;;;0.60;0.60;;;;;;;23.43;31.33;96493.66;5092771;28;20043;-67
2022/09/22 06:18:01;;;;;;;1.05;0.70;;;;;;;23.12;31.10;96495.56;5092759;28;20055;-66
2022/09/22 06:20:29;;;;;;;1.95;0.88;;;;;;;23.02;32.11;96491.06;5092939;28;20044;-66
2022/09/22 06:22:57;;;;;;;1.15;0.80;;;;;;;23.10;31.66;96493.91;5092921;28;20044;-66
2022/09/22 06:25:24;;;;;;;0.90;0.82;;;;;;;23.02;31.38;96492.91;5092846;28;20036;-67
2022/09/22 06:28:01;;;;;;;2.88;2.28;;;;;;;22.58;32.11;96484.22;5092686;28;20486;-67
2022/09/22 06:30:30;;;;;;;0.60;0.60;;;;;;;22.21;32.85;96488.25;5092735;28;20060;-66
2022/09/22 06:32:58;;;;;;;0.90;0.60;;;;;;;22.14;33.45;96483.59;5092697;28;20078;-67
2022/09/22 06:35:29;;;;;;;0.70;0.70;;;;;;;22.36;32.76;96485.22;5093041;28;20135;-67
2022/09/22 06:37:57;;;;;;;2.38;0.70;;;;;;;22.09;32.81;96484.81;5096414;28;20131;-67
2022/09/22 06:40:26;;;;;;;1.48;0.70;;;;;;;21.44;34.01;96488.47;5096610;28;20052;-66
2022/09/22 06:42:58;;;;;;;0.70;0.70;;;;;;;20.67;35.31;96500.81;5096309;28;20093;-66
2022/09/22 06:45:28;;;;;;;2.88;0.68;;;;;;;20.53;35.20;96496.63;5096195;28;20082;-67
2022/09/22 06:47:58;;;;;;;1.33;1.00;;;;;;;20.84;34.25;96500.31;5096006;28;20510;-67
2022/09/22 06:50:29;;;;;;;0.85;0.85;;;;;;;20.41;35.53;96504.59;5096106;28;20072;-67
2022/09/22 06:52:59;;;;;;;0.93;0.73;;;;;;;19.94;36.11;96505.50;5096375;28;20055;-67
2022/09/22 06:55:26;;;;;;;1.00;0.80;;;;;;;19.88;37.83;96502.47;5096051;28;20062;-66
2022/09/22 06:57:54;;;;;;;0.70;0.68;;;;;;;20.15;36.13;96494.22;5096245;28;20052;-67
2022/09/22 07:00:21;;;;;;;2.60;0.80;;;;;;;20.14;36.83;96499.66;5095884;28;20050;-66
2022/09/22 07:02:49;;;;;;;1.42;0.70;;;;;;;20.23;37.43;96498.09;5096107;28;20075;-66
2022/09/22 07:05:20;;;;;;;1.67;0.75;;;;;;;20.32;38.25;96500.03;5096031;28;20101;-67
2022/09/22 07:07:48;;;;;;;0.70;0.70;;;;;;;20.31;37.29;96498.31;5095762;28;20489;-66
2022/09/22 07:10:16;;;;;;;0.98;0.80;;;;;;;20.60;36.83;96499.63;5095709;28;20058;-67
2022/09/22 07:12:43;;;;;;;0.82;0.82;;;;;;;20.72;34.72;96501.31;5095614;28;20048;-67
2022/09/22 07:15:11;;;;;;;3.17;1.23;;;;;;;20.93;35.79;96508.56;5095455;28;20048;-67
2022/09/22 07:17:38;;;;;;;0.90;0.80;;;;;;;20.89;34.55;96507.09;5095687;28;20071;-67
2022/09/22 07:20:06;;;;;;;0.60;0.60;;;;;;;21.26;35.98;96516.56;5095492;28;20050;-67
2022/09/22 07:22:38;;;;;;;3.20;0.70;;;;;;;21.18;34.64;96520.69;5095437;28;20131;-67
2022/09/22 07:25:08;;;;;;;3.20;0.60;;;;;;;21.43;35.36;96520.50;5095873;28;20110;-67
2022/09/22 07:27:35;;;;;;;3.30;1.27;;;;;;;21.43;34.99;96524.00;5095394;28;20401;-67
2022/09/22 07:30:03;;;;;;;0.60;0.60;;;;;;;21.58;34.79;96513.88;5095419;28;20517;-67
2022/09/22 07:32:33;;;;;;;1.60;0.65;;;;;;;21.54;33.70;96517.78;5095280;28;20044;-67
2022/09/22 07:35:01;;;;;;;1.15;0.77;;;;;;;21.00;34.06;96516.88;5095242;28;20109;-67
2022/09/22 07:37:31;;;;;;;1.10;0.75;;;;;;;20.99;34.47;96516.03;5095144;28;20510;-67
2022/09/22 07:39:59;;;;;;;;;;;;;;;20.96;33.66;96516.28;5095773;28;20095;-67
2022/09/22 07:42:28;;;;;;;1.15;1.00;;;;;;;20.47;35.53;96519.22;5095358;28;20006;-66
2022/09/22 07:45:14;;;;;;;1.00;0.90;;;;;;;20.64;35.54;96507.25;5095353;28;20083;-66
2022/09/22 07:50:28;;;;;;;1.42;0.70;;;;;;;20.84;35.61;96518.91;5095048;28;20062;-67
2022/09/22 07:52:56;;;;;;;0.60;0.60;;;;;;;20.89;34.33;96517.72;5094829;28;20087;-67
2022/09/22 07:55:24;;;;;;;0.95;0.70;;;;;;;20.94;33.47;96520.88;5095067;28;20048;-67
2022/09/22 07:57:57;;;;;;;1.60;0.93;;;;;;;20.74;33.58;96514.47;5094832;28;20048;-67
2022/09/22 08:00:26;;;;;;;0.95;0.60;;;;;;;20.92;32.71;96514.84;5094781;28;20414;-67
2022/09/22 08:02:56;;;;;;;0.95;0.80;;;;;;;20.83;33.47;96514.56;5094867;28;20127;-67
2022/09/22 08:05:25;;;;;;;0.90;0.90;;;;;;;20.31;34.38;96522.22;5094698;28;20147;-66
2022/09/22 08:07:55;;;;;;;0.80;0.80;;;;;;;20.36;33.97;96516.53;5094552;28;20129;-67
2022/09/22 08:10:23;;;;;;;0.80;0.80;;;;;;;20.34;35.17;96511.34;5094653;28;20403;-67
2022/09/22 08:12:52;;;;;;;2.30;0.80;;;;;;;20.05;36.21;96522.44;5094921;28;20040;-67
2022/09/22 08:15:22;;;;;;;2.95;0.80;;;;;;;19.95;34.97;96530.22;5094171;28;20126;-66
2022/09/22 08:17:50;;;;;;;0.60;0.60;;;;;;;19.25;36.76;96533.59;5094439;28;20049;-67
2022/09/22 08:20:17;;;;;;;0.88;0.80;;;;;;;18.71;37.39;96530.34;5094816;28;20061;-66
2022/09/22 08:22:44;;;;;;;2.47;0.63;;;;;;;18.57;37.69;96528.69;5094429;28;20482;-67
2022/09/22 08:25:12;;;;;;;0.95;0.73;;;;;;;18.43;38.75;96529.66;5094579;28;20474;-67
2022/09/22 08:27:40;;;;;;;0.98;0.77;;;;;;;18.23;40.67;96525.75;5094233;28;20128;-67
2022/09/22 08:30:10;;;;;;;2.65;0.90;;;;;;;18.11;40.59;96528.31;5094211;28;20549;-67
2022/09/22 08:32:40;;;;;;;1.08;0.82;;;;;;;17.99;40.76;96521.16;5094298;28;20048;-66
2022/09/22 08:35:07;;;;;;;1.05;0.77;;;;;;;18.18;40.94;96520.78;5094219;28;20101;-67
2022/09/22 08:37:35;;;;;;;1.15;0.70;;;;;;;18.39;40.42;96521.09;5094170;28;20478;-67
2022/09/22 08:40:03;;;;;;;0.82;0.82;;;;;;;18.52;40.29;96522.88;5094006;28;20500;-67
2022/09/22 08:42:30;;;;;;;0.80;0.80;;;;;;;18.71;39.95;96519.75;5094801;28;20058;-67
2022/09/22 08:45:01;;;;;;;2.08;0.73;;;;;;;18.53;39.53;96516.63;5093919;28;20055;-67
2022/09/22 08:53:16;;;;;;;0.98;0.73;;;;;;;17.78;40.16;96521.69;5093951;28;20582;-66
2022/09/22 08:55:47;;;;;;;3.67;0.98;;;;;;;17.61;41.35;96521.00;5093902;28;20051;-67
2022/09/22 08:58:35;;;;;;;1.48;0.90;;;;;;;17.40;41.76;96518.03;5093641;28;20135;-67
2022/09/22 09:01:19;;;;;;;3.38;0.80;;;;;;;17.29;40.66;96521.38;5093180;28;20048;-66
2022/09/22 09:04:00;;;;;;;0.60;0.60;;;;;;;17.11;40.68;96523.41;5093576;28;20044;-67
2022/09/22 09:06:39;;;;;;;1.10;1.00;;;;;;;17.04;41.30;96520.31;5093530;28;20076;-66
2022/09/22 09:09:42;;;;;;;0.80;0.80;;;;;;;16.89;41.01;96515.03;5093466;28;20066;-66
2022/09/22 09:12:24;;;;;;;0.85;0.73;;;;;;;16.64;42.39;96518.38;5093432;28;20117;-66
2022/09/22 09:15:21;;;;;;;0.63;0.63;;;;;;;16.54;42.44;96513.72;5093143;28;20406;-66
2022/09/22 09:17:51;;;;;;;0.95;0.75;;;;;;;16.61;42.53;96516.81;5088944;28;20051;-66
2022/09/22 09:20:31;;;;;;;1.17;0.77;;;;;;;16.54;41.49;96515.50;5093469;28;20048;-66
2022/09/22 09:23:00;;;;;;;2.05;0.80;;;;;;;16.49;42.85;96518.41;5093358;28;20051;-66
2022/09/22 09:25:34;;;;;;;2.75;0.85;;;;;;;16.61;41.11;96514.16;5093298;28;20093;-67
2022/09/22 09:28:05;;;;;;;0.70;0.70;;;;;;;17.20;41.69;96517.53;5093222;28;20387;-67
2022/09/22 09:30:40;;;;;;;2.83;0.80;;;;;;;17.85;40.17;96507.06;5093439;28;20135;-65
2022/09/22 09:33:18;;;;;;;0.75;0.70;;;;;;;18.48;39.96;96510.81;5093163;28;20253;-66
2022/09/22 09:35:49;;;;;;;1.80;0.55;;;;;;;18.91;38.33;96510.34;5093125;28;20043;-67
2022/09/22 09:38:19;;;;;;;0.63;0.63;;;;;;;19.26;38.93;96506.13;5093204;28;20048;-67
2022/09/22 09:40:53;;;;;;;0.60;0.60;;;;;;;19.51;36.60;96503.47;5093179;28;20048;-67
2022/09/22 09:43:24;;;;;;;0.63;0.63;;;;;;;19.19;36.45;96500.44;5093275;28;20052;-66
2022/09/22 09:46:06;;;;;;;1.25;0.70;;;;;;;18.99;36.68;96511.63;5093276;28;20051;-66
2022/09/22 09:48:43;;;;;;;0.70;0.70;;;;;;;18.88;37.88;96507.97;5093075;28;20117;-67
2022/09/22 09:51:13;;;;;;;1.83;0.60;;;;;;;18.79;38.10;96512.09;5093167;28;20110;-66
2022/09/22 09:53:45;;;;;;;2.30;0.95;;;;;;;18.64;38.50;96510.56;5093251;28;20398;-67
2022/09/22 09:56:24;;;;;;;1.48;0.90;;;;;;;18.53;38.57;96506.88;5093108;28;20143;-67
2022/09/22 10:01:45;;;;;;;4.28;0.90;;;;;;;19.24;35.01;96500.09;5093018;28;20055;-66
2022/09/22 10:04:30;;;;;;;0.63;0.60;;;;;;;19.21;32.60;96500.34;5092926;28;20564;-66
2022/09/22 10:07:11;;;;;;;0.60;0.60;;;;;;;19.26;35.75;96497.34;5093283;28;20375;-67
2022/09/22 10:09:41;;;;;;;4.28;0.70;;;;;;;19.60;35.20;96491.31;5092815;28;20087;-67
2022/09/22 10:12:24;;;;;;;1.95;0.80;;;;;;;19.39;35.78;96494.63;5096246;28;20048;-67
2022/09/22 10:14:54;;;;;;;0.80;0.80;;;;;;;19.08;34.58;96488.94;5096867;28;20048;-67
2022/09/22 10:17:23;;;;;;;3.03;0.77;;;;;;;18.63;36.44;96491.16;5096863;28;20105;-66
2022/09/22 10:19:51;;;;;;;0.70;0.68;;;;;;;18.57;38.16;96491.59;5096812;28;20551;-66
2022/09/22 10:22:26;;;;;;;0.57;0.57;;;;;;;18.72;36.82;96483.53;5096685;28;20101;-67
2022/09/22 10:24:58;;;;;;;0.65;0.50;;;;;;;18.78;34.22;96478.63;5096816;28;20050;-68
2022/09/22 10:27:27;;;;;;;0.55;0.55;;;;;;;18.76;35.67;96480.56;5096703;28;20050;-67
2022/09/22 10:30:31;;;;;;;1.63;0.70;;;;;;;19.12;35.65;96485.09;5096695;28;20066;-67
2022/09/22 10:33:16;;;;;;;0.60;0.60;;;;;;;19.33;33.18;96477.38;5054415;28;20537;-67
2022/09/22 10:35:46;;;;;;;2.40;0.60;;;;;;;19.50;35.72;96480.56;5054229;28;20584;-67
2022/09/22 10:38:18;;;;;;;1.15;0.50;;;;;;;19.57;33.76;96477.31;5080065;28;20494;-67
2022/09/22 10:40:50;;;;;;;0.55;0.55;;;;;;;19.13;32.94;96476.19;5096621;28;20127;-66
2022/09/22 10:43:43;;;;;;;0.63;0.63;;;;;;;18.76;32.97;96485.00;5096318;28;20053;-68
2022/09/22 10:46:50;;;;;;;0.60;0.60;;;;;;;18.05;34.79;96481.91;5096319;28;20051;-67
2022/09/22 10:49:32;;;;;;;0.60;0.60;;;;;;;18.03;35.19;96477.69;5096440;28;20474;-67
2022/09/22 10:52:09;;;;;;;0.50;0.50;;;;;;;17.70;35.96;96474.59;5096157;28;20052;-67
2022/09/22 10:55:01;;;;;;;0.70;0.70;;;;;;;17.41;35.63;96480.91;5095973;28;20048;-66
2022/09/22 10:57:48;;;;;;;0.70;0.70;;;;;;;17.59;35.57;96472.69;5096040;28;20378;-66
2022/09/22 11:00:18;;;;;;;2.25;0.88;;;;;;;17.58;37.33;96463.03;5096026;28;20044;-67
2022/09/22 11:03:32;;;;;;;0.65;0.65;;;;;;;17.29;35.84;96465.84;5095941;28;20482;-68
2022/09/22 11:12:17;;;;;;;0.50;0.50;;;;;;;16.90;37.29;96463.06;5095788;28;20097;-66
2022/09/22 11:15:00;;;;;;;0.95;0.90;;;;;;;16.47;37.57;96472.81;5095566;28;20048;-66
2022/09/22 11:17:54;;;;;;;4.85;1.42;;;;;;;16.15;39.83;96476.50;5095820;28;20379;-66
2022/09/22 11:20:33;;;;;;;0.70;0.70;;;;;;;16.15;38.94;96470.38;5093614;28;20078;-66
2022/09/22 11:23:30;;;;;;;2.58;0.90;;;;;;;16.05;39.13;96475.38;5094387;28;20044;-66
2022/09/22 11:26:29;;;;;;;0.63;0.60;;;;;;;16.13;40.09;96472.25;5077464;28;20097;-66
2022/09/22 11:29:19;;;;;;;0.65;0.65;;;;;;;16.21;39.52;96471.78;5095400;28;20063;-66
2022/09/22 11:31:54;;;;;;;2.10;0.70;;;;;;;16.14;37.74;96469.50;5095390;28;20486;-66
2022/09/22 11:34:45;;;;;;;0.88;0.63;;;;;;;16.03;37.82;96469.34;5095592;28;20083;-66
2022/09/22 11:37:29;;;;;;;0.70;0.70;;;;;;;16.03;37.54;96469.34;5095432;28;20489;-67
2022/09/22 11:40:17;;;;;;;0.50;0.50;;;;;;;16.06;39.34;96461.22;5095289;28;20131;-67
2022/09/22 11:42:52;;;;;;;0.77;0.60;;;;;;;16.45;36.81;96456.19;5095217;28;20039;-67
2022/09/22 11:45:37;;;;;;;0.68;0.60;;;;;;;16.58;37.44;96455.44;5095051;28;20040;-67
2022/09/22 11:48:17;;;;;;;1.40;0.73;;;;;;;16.90;37.03;96452.50;5095357;28;20402;-67
2022/09/22 11:51:04;;;;;;;0.95;0.70;;;;;;;17.16;37.16;96466.66;5095041;28;20040;-67
2022/09/22 11:53:54;;;;;;;0.70;0.70;;;;;;;17.33;36.93;96461.22;5094723;28;20048;-67
2022/09/22 11:56:42;;;;;;;0.50;0.50;;;;;;;17.52;35.90;96463.47;5094968;28;20048;-67
2022/09/22 11:59:24;;;;;;;0.73;0.60;;;;;;;17.52;36.63;96461.66;5094968;28;20044;-67
2022/09/22 12:01:53;;;;;;;3.90;0.70;;;;;;;17.64;37.02;96462.63;5094755;28;20101;-67
2022/09/22 12:04:29;;;;;;;4.30;0.60;;;;;;;17.75;35.53;96463.69;5094730;28;20094;-67
2022/09/22 12:07:00;;;;;;;0.80;0.70;;;;;;;17.66;36.55;96465.16;5094965;28;20642;-67
2022/09/22 12:09:34;;;;;;;0.40;0.40;;;;;;;17.55;36.07;96461.47;5094661;28;20108;-67
2022/09/22 12:12:04;;;;;;;0.55;0.55;;;;;;;17.71;33.65;96459.56;5094702;28;20051;-67
2022/09/22 12:14:32;;;;;;;2.70;0.53;;;;;;;17.60;32.81;96453.22;5094306;28;20079;-66
2022/09/22 12:17:04;;;;;;;1.20;0.77;;;;;;;17.58;34.32;96460.41;5094407;28;20281;-67
2022/09/22 12:19:44;;;;;;;0.57;0.57;;;;;;;17.54;34.65;96456.28;5094468;28;20069;-67